Time;durP1;ratioP1;P1;durP2;ratioP2;P2;SDS_P1;SDS_P2;PMS_P1;PMS_P2;Temp;Humidity;BMP_temperature;BMP_pressure;BME280_temperature;BME280_humidity;BME280_pressure;Samples;Min_cycle;Max_cycle;Signal;HPM_P1;HPM_P2
2022/11/24 00:01:09;;;;;;;2.50;0.90;;;;;;;3.85;56.44;91688.25;5053064;28;20467;-74
2022/11/24 00:03:35;;;;;;;2.05;0.80;;;;;;;3.86;56.42;91698.34;5071128;28;20024;-75
2022/11/24 00:06:09;;;;;;;0.93;0.70;;;;;;;4.01;54.92;91701.91;5069649;28;20036;-74
2022/11/24 00:08:35;;;;;;;0.60;0.60;;;;;;;4.14;54.39;91691.00;5069537;28;20136;-74
2022/11/24 00:11:07;;;;;;;0.55;0.55;;;;;;;4.33;53.41;91699.72;5069586;28;20406;-74
2022/11/24 00:13:33;;;;;;;0.50;0.50;;;;;;;4.46;53.01;91692.38;5069659;28;20422;-74
2022/11/24 00:16:20;;;;;;;0.73;0.70;;;;;;;4.49;53.11;91695.22;5069701;28;20033;-74
2022/11/24 00:18:48;;;;;;;2.35;0.57;;;;;;;4.66;52.33;91704.47;5069470;28;20032;-74
2022/11/24 00:21:15;;;;;;;0.52;0.52;;;;;;;4.72;51.97;91709.34;5070759;28;20056;-74
2022/11/24 00:23:41;;;;;;;1.23;0.75;;;;;;;4.80;50.94;91708.78;5053406;28;20077;-74
2022/11/24 00:26:18;;;;;;;0.80;0.60;;;;;;;4.91;50.00;91711.31;5074666;28;20036;-74
2022/11/24 00:28:46;;;;;;;2.33;0.60;;;;;;;5.03;49.83;91709.16;5074628;28;20032;-75
2022/11/24 00:31:22;;;;;;;1.17;0.80;;;;;;;5.07;50.21;91710.19;5074525;28;20029;-74
2022/11/24 00:33:49;;;;;;;0.60;0.60;;;;;;;5.15;49.60;91711.41;5073195;28;20035;-74
2022/11/24 00:36:16;;;;;;;0.90;0.80;;;;;;;5.19;49.23;91713.19;5074431;28;20048;-74
2022/11/24 00:38:41;;;;;;;0.60;0.60;;;;;;;5.21;49.19;91718.88;5074414;28;20039;-74
2022/11/24 00:41:07;;;;;;;0.50;0.50;;;;;;;5.22;49.35;91723.03;5056673;28;20036;-74
2022/11/24 00:43:33;;;;;;;0.70;0.70;;;;;;;5.21;49.29;91728.50;5074007;28;20036;-74
2022/11/24 00:45:58;;;;;;;0.60;0.60;;;;;;;5.21;48.80;91729.25;5074269;28;20029;-74
2022/11/24 00:48:24;;;;;;;0.65;0.65;;;;;;;5.21;48.63;91728.50;5074152;28;20047;-74
2022/11/24 00:51:01;;;;;;;0.60;0.60;;;;;;;5.24;48.29;91737.56;5072966;28;20036;-77
2022/11/24 00:53:27;;;;;;;0.70;0.70;;;;;;;5.31;47.54;91738.78;5073941;28;20048;-74
2022/11/24 00:55:54;;;;;;;0.82;0.63;;;;;;;5.39;46.61;91734.84;5072965;28;20127;-74
2022/11/24 00:58:20;;;;;;;0.90;0.60;;;;;;;5.46;46.48;91743.09;5072873;28;20040;-74
2022/11/24 01:00:46;;;;;;;0.40;0.40;;;;;;;5.52;46.33;91749.03;5072532;28;20040;-74
2022/11/24 01:03:13;;;;;;;0.60;0.60;;;;;;;5.67;45.63;91748.09;5073716;28;20642;-74
2022/11/24 01:05:39;;;;;;;0.50;0.50;;;;;;;5.66;45.80;91755.13;5073958;28;20048;-74
2022/11/24 01:08:05;;;;;;;0.60;0.60;;;;;;;5.73;45.31;91757.41;5072723;28;20044;-74
2022/11/24 01:10:32;;;;;;;0.73;0.65;;;;;;;5.74;45.24;91766.72;5072417;28;20032;-74
2022/11/24 01:12:58;;;;;;;0.70;0.70;;;;;;;5.82;44.74;91760.94;5039150;28;20043;-74
2022/11/24 01:15:24;;;;;;;0.77;0.77;;;;;;;5.86;44.68;91779.38;5073036;28;20375;-74
2022/11/24 01:17:50;;;;;;;0.57;0.57;;;;;;;5.82;44.82;91779.91;5055635;28;20020;-75
2022/11/24 01:20:16;;;;;;;0.60;0.60;;;;;;;5.75;45.95;91784.66;5055701;28;20097;-75
2022/11/24 01:22:41;;;;;;;0.57;0.50;;;;;;;5.66;46.59;91794.06;5073727;28;20041;-75
2022/11/24 01:25:09;;;;;;;0.77;0.70;;;;;;;5.51;47.13;91797.56;5072485;28;20111;-75
2022/11/24 01:27:35;;;;;;;1.13;0.70;;;;;;;5.44;47.60;91807.47;5072197;28;20455;-75
2022/11/24 01:30:01;;;;;;;0.50;0.50;;;;;;;5.32;47.54;91813.00;5072357;28;20067;-74
2022/11/24 01:32:26;;;;;;;1.48;0.70;;;;;;;5.25;47.49;91817.72;5072225;28;20040;-75
2022/11/24 01:34:52;;;;;;;1.95;0.65;;;;;;;5.21;47.67;91820.06;5054952;28;20401;-75
2022/11/24 01:37:18;;;;;;;0.50;0.50;;;;;;;5.13;47.63;91825.81;5071505;28;20048;-75
2022/11/24 01:39:43;;;;;;;0.57;0.57;;;;;;;5.08;47.79;91825.88;5072264;28;20059;-74
2022/11/24 01:42:09;;;;;;;0.40;0.40;;;;;;;5.07;47.41;91826.91;5072232;28;20054;-75
2022/11/24 01:44:35;;;;;;;0.57;0.57;;;;;;;5.10;47.08;91834.16;5071994;28;20086;-74
2022/11/24 01:47:13;;;;;;;2.80;0.60;;;;;;;5.11;46.81;91838.31;5071922;28;20036;-75
2022/11/24 01:49:43;;;;;;;1.50;0.60;;;;;;;5.11;47.03;91848.69;5072203;28;20040;-75
2022/11/24 01:52:21;;;;;;;0.60;0.60;;;;;;;5.20;46.40;91852.28;5072813;28;20053;-74
2022/11/24 01:55:02;;;;;;;14.15;3.00;;;;;;;5.21;46.55;91850.44;5071472;28;20102;-74
2022/11/24 01:57:43;;;;;;;6.57;2.30;;;;;;;5.16;47.16;91856.44;5071691;28;20462;-73
2022/11/24 02:00:13;;;;;;;1.48;0.90;;;;;;;5.12;47.31;91868.41;5071745;28;20486;-75
2022/11/24 02:02:44;;;;;;;0.80;0.60;;;;;;;5.11;47.25;91872.03;5073023;28;20441;-74
2022/11/24 02:05:34;;;;;;;0.50;0.50;;;;;;;5.05;47.73;91867.91;5071423;28;20536;-75
2022/11/24 02:08:01;;;;;;;0.65;0.50;;;;;;;5.01;47.53;91869.47;5071457;28;20040;-74
2022/11/24 02:10:27;;;;;;;0.50;0.50;;;;;;;4.98;48.14;91873.41;5072888;28;20032;-75
2022/11/24 02:12:54;;;;;;;0.93;0.85;;;;;;;4.96;47.95;91870.28;5073033;28;20038;-74
2022/11/24 02:15:21;;;;;;;0.50;0.50;;;;;;;4.94;48.18;91866.41;5071429;28;20070;-74
2022/11/24 02:17:47;;;;;;;0.93;0.70;;;;;;;4.92;48.08;91868.50;5054634;28;20082;-74
2022/11/24 02:20:13;;;;;;;0.60;0.60;;;;;;;4.92;47.90;91861.47;5071426;28;20048;-74
2022/11/24 02:23:04;;;;;;;0.57;0.50;;;;;;;4.99;46.79;91864.56;5071161;28;20071;-74
2022/11/24 02:25:41;;;;;;;0.90;0.50;;;;;;;5.06;46.45;91863.50;5071213;28;20127;-74
2022/11/24 02:28:11;;;;;;;0.50;0.50;;;;;;;5.07;46.66;91868.44;5072346;28;20028;-74
2022/11/24 02:30:36;;;;;;;0.50;0.50;;;;;;;5.05;46.63;91860.13;5072344;28;20036;-74
2022/11/24 02:33:02;;;;;;;0.57;0.52;;;;;;;5.12;46.63;91865.03;5070774;28;20078;-74
2022/11/24 02:35:28;;;;;;;0.45;0.43;;;;;;;5.13;46.38;91869.94;5070772;28;20056;-74
2022/11/24 02:37:53;;;;;;;0.50;0.50;;;;;;;5.19;45.89;91876.66;5054411;28;20020;-74
2022/11/24 02:40:24;;;;;;;0.60;0.60;;;;;;;5.25;45.43;91867.03;5070878;28;20078;-75
2022/11/24 02:42:54;;;;;;;0.85;0.70;;;;;;;5.30;45.08;91872.19;5072512;28;20037;-74
2022/11/24 02:45:20;;;;;;;1.13;0.70;;;;;;;5.37;44.83;91880.47;5072096;28;20020;-74
2022/11/24 02:47:46;;;;;;;0.50;0.50;;;;;;;5.41;45.04;91878.88;5053790;28;20044;-75
2022/11/24 02:50:11;;;;;;;1.10;0.65;;;;;;;5.44;44.81;91872.38;5071763;28;20037;-75
2022/11/24 02:52:37;;;;;;;0.60;0.60;;;;;;;5.48;44.83;91870.03;5070548;28;20368;-74
2022/11/24 02:55:03;;;;;;;0.50;0.50;;;;;;;5.49;44.68;91869.72;5071758;28;20070;-73
2022/11/24 02:57:29;;;;;;;0.80;0.80;;;;;;;5.52;44.44;91869.22;5070368;28;20032;-74
2022/11/24 02:59:55;;;;;;;0.95;0.60;;;;;;;5.53;44.36;91868.16;5087773;28;20024;-74
2022/11/24 03:02:21;;;;;;;0.50;0.50;;;;;;;5.58;44.36;91872.53;5092361;28;20119;-74
2022/11/24 03:04:46;;;;;;;0.60;0.60;;;;;;;5.58;44.39;91875.13;5090564;28;20035;-74
2022/11/24 03:07:12;;;;;;;1.08;0.55;;;;;;;5.52;44.43;91874.41;5090136;28;20024;-73
2022/11/24 03:09:37;;;;;;;1.17;0.80;;;;;;;5.48;44.78;91875.22;5073842;28;20040;-74
2022/11/24 03:12:04;;;;;;;0.50;0.50;;;;;;;5.46;44.77;91883.25;5090646;28;20189;-74
2022/11/24 03:14:29;;;;;;;0.73;0.70;;;;;;;5.43;43.99;91883.81;5091717;28;20107;-75
2022/11/24 03:16:54;;;;;;;0.63;0.63;;;;;;;5.43;43.72;91892.38;5090223;28;20057;-74
2022/11/24 03:19:20;;;;;;;0.65;0.65;;;;;;;5.47;43.77;91891.81;5090425;28;20036;-74
2022/11/24 03:21:46;;;;;;;0.90;0.50;;;;;;;5.50;43.68;91899.09;5090351;28;20028;-74
2022/11/24 03:24:11;;;;;;;0.60;0.60;;;;;;;5.57;42.98;91902.94;5073550;28;20263;-75
2022/11/24 03:26:37;;;;;;;0.50;0.50;;;;;;;5.67;42.46;91906.50;5091240;28;20040;-74
2022/11/24 03:29:02;;;;;;;0.50;0.50;;;;;;;5.73;42.05;91895.03;5091490;28;20055;-74
2022/11/24 03:31:28;;;;;;;0.60;0.60;;;;;;;5.78;41.92;91908.00;5091487;28;20082;-74
2022/11/24 03:33:53;;;;;;;0.60;0.60;;;;;;;5.82;41.65;91906.41;5090871;28;20036;-73
2022/11/24 03:36:19;;;;;;;0.60;0.60;;;;;;;5.94;41.14;91914.66;5090063;28;20027;-74
2022/11/24 03:38:44;;;;;;;0.57;0.57;;;;;;;6.00;40.88;91910.97;5090102;28;20044;-74
2022/11/24 03:41:10;;;;;;;0.80;0.70;;;;;;;5.99;40.78;91912.03;5090247;28;20352;-73
2022/11/24 03:43:36;;;;;;;1.30;0.60;;;;;;;5.96;40.98;91920.34;5089789;28;20512;-74
2022/11/24 03:46:01;;;;;;;0.65;0.63;;;;;;;5.94;41.01;91919.84;5091321;28;20509;-75
2022/11/24 03:48:27;;;;;;;0.50;0.50;;;;;;;5.96;40.67;91920.34;5089958;28;20039;-74
2022/11/24 03:50:57;;;;;;;0.57;0.57;;;;;;;5.99;40.74;91919.84;5091242;28;20731;-74
2022/11/24 03:53:25;;;;;;;1.42;0.60;;;;;;;6.03;40.19;91915.66;5089732;28;20075;-74
2022/11/24 03:55:51;;;;;;;0.50;0.50;;;;;;;6.08;40.12;91909.63;5091088;28;20097;-74
2022/11/24 03:58:18;;;;;;;0.50;0.50;;;;;;;6.10;40.11;91917.91;5089221;28;20485;-73
2022/11/24 04:00:44;;;;;;;0.65;0.50;;;;;;;6.15;39.91;91919.72;5091619;28;20031;-74
2022/11/24 04:03:10;;;;;;;0.60;0.60;;;;;;;6.19;40.02;91916.31;5089580;28;20108;-74
2022/11/24 04:05:35;;;;;;;1.52;0.77;;;;;;;6.29;39.60;91925.06;5091271;28;20246;-74
2022/11/24 04:08:04;;;;;;;0.75;0.70;;;;;;;6.25;39.87;91922.22;5090726;28;20044;-74
2022/11/24 04:10:31;;;;;;;0.65;0.63;;;;;;;6.21;40.24;91921.22;5089607;28;20039;-74
2022/11/24 04:12:57;;;;;;;1.00;0.77;;;;;;;6.19;39.86;91925.91;5090944;28;20034;-73
2022/11/24 04:15:22;;;;;;;2.78;0.88;;;;;;;6.28;39.50;91932.06;5090825;28;20551;-74
2022/11/24 04:17:49;;;;;;;0.50;0.50;;;;;;;6.24;39.81;91933.69;5072934;28;20395;-73
2022/11/24 04:20:15;;;;;;;1.70;0.60;;;;;;;6.21;40.08;91929.81;5091111;28;20354;-74
2022/11/24 04:22:41;;;;;;;1.63;0.60;;;;;;;6.24;40.11;91938.88;5090051;28;20446;-73
2022/11/24 04:25:08;;;;;;;1.58;0.70;;;;;;;6.24;39.93;91941.47;5089704;28;20036;-73
2022/11/24 04:27:35;;;;;;;1.17;0.80;;;;;;;6.21;40.05;91945.41;5091434;28;20036;-74
2022/11/24 04:30:01;;;;;;;1.13;0.70;;;;;;;6.20;39.86;91950.84;5091435;28;20312;-74
2022/11/24 04:32:27;;;;;;;1.13;0.80;;;;;;;6.14;40.38;91955.31;5091385;28;20143;-74
2022/11/24 04:34:53;;;;;;;1.40;0.75;;;;;;;6.18;39.88;91958.91;5089661;28;20748;-74
2022/11/24 04:37:18;;;;;;;0.70;0.70;;;;;;;6.15;39.89;91953.50;5055160;28;20031;-75
2022/11/24 04:39:45;;;;;;;1.38;0.70;;;;;;;6.18;40.16;91963.34;5089531;28;20112;-75
2022/11/24 04:42:11;;;;;;;0.52;0.52;;;;;;;6.17;39.90;91959.19;5090912;28;20032;-75
2022/11/24 04:44:37;;;;;;;1.23;0.55;;;;;;;6.12;40.51;91965.19;5089640;28;20020;-74
2022/11/24 04:47:03;;;;;;;0.68;0.55;;;;;;;6.03;40.71;91966.81;5090596;28;20046;-74
2022/11/24 04:49:28;;;;;;;1.55;0.80;;;;;;;5.93;41.11;91979.84;5072708;28;20060;-74
2022/11/24 04:51:54;;;;;;;0.75;0.63;;;;;;;5.86;40.79;91971.59;5070391;28;20464;-72
2022/11/24 04:54:19;;;;;;;0.70;0.60;;;;;;;5.87;40.90;91979.09;5089324;28;20516;-74
2022/11/24 04:56:50;;;;;;;2.30;0.73;;;;;;;5.84;40.84;91980.41;5089458;28;20036;-74
2022/11/24 04:59:16;;;;;;;0.85;0.65;;;;;;;5.85;41.01;91988.97;5090656;28;20043;-74
2022/11/24 05:01:42;;;;;;;4.85;0.80;;;;;;;5.80;41.01;91984.59;5090641;28;20036;-74
2022/11/24 05:04:13;;;;;;;1.25;0.73;;;;;;;5.75;41.57;91983.84;5072474;28;20063;-74
2022/11/24 05:06:39;;;;;;;0.60;0.60;;;;;;;5.66;42.04;91998.44;5090513;28;20046;-73
2022/11/24 05:09:06;;;;;;;0.70;0.70;;;;;;;5.58;42.45;91994.56;5089297;28;20028;-74
2022/11/24 05:11:32;;;;;;;0.68;0.52;;;;;;;5.51;42.88;91992.25;5092965;28;20032;-74
2022/11/24 05:13:58;;;;;;;1.45;0.55;;;;;;;5.47;42.83;91993.06;5075883;28;20058;-74
2022/11/24 05:16:24;;;;;;;1.02;0.70;;;;;;;5.45;42.70;91993.34;5093936;28;20489;-73
2022/11/24 05:18:50;;;;;;;0.50;0.50;;;;;;;5.49;42.17;91986.56;5093585;28;20703;-74
2022/11/24 05:21:15;;;;;;;0.93;0.57;;;;;;;5.50;42.06;91987.34;5092760;28;20051;-74
2022/11/24 05:23:41;;;;;;;1.25;0.65;;;;;;;5.50;42.32;91977.75;5091960;28;20429;-74
2022/11/24 05:26:06;;;;;;;1.58;0.80;;;;;;;5.49;42.29;91989.16;5092511;28;20374;-75
2022/11/24 05:28:32;;;;;;;0.77;0.60;;;;;;;5.48;42.53;91992.03;5088863;28;20064;-74
2022/11/24 05:31:00;;;;;;;2.00;0.65;;;;;;;5.44;42.77;92002.16;5095414;28;20403;-74
2022/11/24 05:33:27;;;;;;;0.77;0.60;;;;;;;5.43;42.47;92001.41;5092308;28;20482;-74
2022/11/24 05:35:54;;;;;;;1.42;0.52;;;;;;;5.41;42.71;92000.88;5089691;28;20048;-74
2022/11/24 05:38:21;;;;;;;0.50;0.50;;;;;;;5.40;43.15;92003.72;5093536;28;20032;-75
2022/11/24 05:40:47;;;;;;;0.60;0.60;;;;;;;5.36;43.03;92006.09;5093475;28;20107;-74
2022/11/24 05:43:14;;;;;;;1.17;0.75;;;;;;;5.33;43.87;92008.44;5088462;28;20300;-75
2022/11/24 05:45:40;;;;;;;0.40;0.40;;;;;;;5.34;43.24;92007.41;5081113;28;20038;-75
2022/11/24 05:48:09;;;;;;;0.50;0.50;;;;;;;5.35;43.15;92006.34;5082758;28;20024;-74
2022/11/24 05:50:34;;;;;;;0.80;0.63;;;;;;;5.40;43.09;92014.13;5092066;28;20513;-74
2022/11/24 05:53:11;;;;;;;1.83;0.70;;;;;;;5.42;42.69;92019.81;5091700;28;20123;-74
2022/11/24 05:55:38;;;;;;;0.85;0.60;;;;;;;5.49;42.63;92024.72;5072063;28;20041;-74
2022/11/24 05:58:06;;;;;;;0.65;0.60;;;;;;;5.48;42.48;92015.41;5081882;28;20110;-74
2022/11/24 06:00:33;;;;;;;0.50;0.50;;;;;;;5.42;43.50;92010.22;5091886;28;20036;-78
2022/11/24 06:03:00;;;;;;;1.65;0.60;;;;;;;5.35;43.93;92020.09;5093587;28;20036;-74
2022/11/24 06:05:27;;;;;;;0.75;0.60;;;;;;;5.26;44.49;92023.50;5081034;28;20237;-74
2022/11/24 06:07:53;;;;;;;3.97;0.90;;;;;;;5.20;44.64;92028.72;5070925;28;20033;-74
2022/11/24 06:10:20;;;;;;;1.08;0.70;;;;;;;5.13;44.80;92030.03;5090265;28;20043;-74
2022/11/24 06:12:45;;;;;;;0.50;0.50;;;;;;;5.09;44.67;92032.38;5091620;28;20040;-74
2022/11/24 06:15:11;;;;;;;1.08;0.80;;;;;;;5.06;44.42;92027.72;5086882;28;20029;-75
2022/11/24 06:17:38;;;;;;;0.60;0.60;;;;;;;5.02;45.05;92031.84;5072437;28;20045;-74
2022/11/24 06:20:05;;;;;;;0.95;0.60;;;;;;;5.01;44.75;92028.50;5076108;28;20067;-73
2022/11/24 06:22:31;;;;;;;2.78;0.70;;;;;;;4.98;44.86;92026.44;5088284;28;20491;-73
2022/11/24 06:24:57;;;;;;;2.05;0.80;;;;;;;4.99;44.92;92042.78;5085712;28;20028;-73
2022/11/24 06:27:23;;;;;;;2.30;0.80;;;;;;;4.97;45.27;92050.81;5083366;28;20032;-74
2022/11/24 06:29:48;;;;;;;0.90;0.57;;;;;;;4.93;45.34;92054.97;5080640;28;20051;-74
2022/11/24 06:32:14;;;;;;;0.52;0.50;;;;;;;4.96;44.82;92061.47;5087332;28;20035;-73
2022/11/24 06:34:41;;;;;;;0.52;0.52;;;;;;;4.95;44.90;92057.31;5082076;28;20124;-74
2022/11/24 06:37:06;;;;;;;0.40;0.40;;;;;;;4.98;45.06;92057.56;5071382;28;20036;-73
2022/11/24 06:39:33;;;;;;;0.50;0.50;;;;;;;4.99;44.67;92060.94;5086342;28;20078;-74
2022/11/24 06:41:59;;;;;;;0.52;0.52;;;;;;;5.08;44.24;92061.94;5091062;28;20032;-74
2022/11/24 06:44:25;;;;;;;0.95;0.63;;;;;;;5.24;43.63;92065.28;5107838;28;20063;-74
2022/11/24 06:46:50;;;;;;;1.33;0.70;;;;;;;5.36;43.13;92076.19;5092186;28;20078;-74
2022/11/24 06:49:16;;;;;;;0.60;0.60;;;;;;;5.49;42.73;92085.22;5092409;28;20047;-74
2022/11/24 06:51:41;;;;;;;0.60;0.60;;;;;;;5.64;41.93;92079.19;5091314;28;20089;-76
2022/11/24 06:54:09;;;;;;;0.57;0.57;;;;;;;5.82;40.88;92089.00;5092271;28;20040;-76
2022/11/24 06:56:35;;;;;;;0.60;0.60;;;;;;;5.93;41.20;92089.75;5092289;28;20036;-76
2022/11/24 06:59:01;;;;;;;0.85;0.47;;;;;;;6.33;41.66;92095.81;5090982;28;20093;-76
2022/11/24 07:01:28;;;;;;;3.03;0.70;;;;;;;7.27;41.53;92094.84;5092719;28;20039;-77
2022/11/24 07:03:55;;;;;;;5.03;1.02;;;;;;;8.44;40.45;92110.25;5074278;28;20027;-76
2022/11/24 07:06:22;;;;;;;1.65;0.70;;;;;;;9.48;39.31;92103.97;5107885;28;20111;-76
2022/11/24 07:08:49;;;;;;;1.08;0.70;;;;;;;10.45;36.69;92106.59;5090936;28;20081;-76
2022/11/24 07:11:20;;;;;;;2.53;1.55;;;;;;;11.33;35.17;92106.19;5072620;28;20055;-76
2022/11/24 07:13:46;;;;;;;1.53;1.20;;;;;;;12.18;34.40;92102.72;5071922;28;20106;-76
2022/11/24 07:16:17;;;;;;;1.05;0.75;;;;;;;13.09;33.60;92109.78;5071439;28;20063;-76
2022/11/24 07:18:44;;;;;;;0.55;0.50;;;;;;;13.97;32.42;92115.66;5069921;28;20040;-76
2022/11/24 07:21:09;;;;;;;4.00;0.75;;;;;;;14.68;30.69;92114.22;5104024;28;20071;-75
2022/11/24 07:23:35;;;;;;;2.00;1.00;;;;;;;15.19;28.50;92120.97;5071270;28;20032;-76
2022/11/24 07:26:02;;;;;;;1.33;0.93;;;;;;;16.07;28.24;92114.88;5070213;28;20040;-76
2022/11/24 07:28:29;;;;;;;0.85;0.70;;;;;;;16.76;27.81;92108.72;5069832;28;20513;-76
2022/11/24 07:30:54;;;;;;;1.20;0.70;;;;;;;17.26;26.41;92107.50;5070007;28;20121;-76
2022/11/24 07:33:23;;;;;;;0.88;0.70;;;;;;;17.63;25.45;92111.88;5070293;28;20506;-76
2022/11/24 07:35:50;;;;;;;0.60;0.50;;;;;;;18.09;25.18;92118.38;5069911;28;20028;-76
2022/11/24 07:38:16;;;;;;;1.25;1.15;;;;;;;18.62;25.09;92109.38;5069952;28;20512;-76
2022/11/24 07:40:41;;;;;;;2.30;0.75;;;;;;;19.41;24.29;92114.47;5071442;28;20036;-76
2022/11/24 07:43:07;;;;;;;2.05;0.77;;;;;;;20.11;23.47;92112.72;5071349;28;20483;-76
2022/11/24 07:45:33;;;;;;;4.70;0.77;;;;;;;19.64;23.62;92119.84;5053794;28;20101;-76
2022/11/24 07:47:59;;;;;;;2.17;0.80;;;;;;;20.32;22.71;92113.06;5071371;28;20135;-77
2022/11/24 07:50:24;;;;;;;3.35;1.00;;;;;;;20.46;21.89;92123.16;5072069;28;20047;-77
2022/11/24 07:52:50;;;;;;;2.95;0.90;;;;;;;20.86;22.02;92124.53;5072105;28;20044;-77
2022/11/24 07:55:16;;;;;;;2.35;1.30;;;;;;;20.53;22.10;92128.59;5070881;28;20444;-77
2022/11/24 07:57:41;;;;;;;2.78;1.38;;;;;;;20.66;23.65;92131.84;5071285;28;20476;-76
2022/11/24 08:00:07;;;;;;;2.55;1.50;;;;;;;20.76;22.00;92135.78;5070270;28;20025;-76
2022/11/24 08:02:33;;;;;;;2.63;1.60;;;;;;;21.04;21.10;92140.75;5071163;28;20047;-75
2022/11/24 08:04:59;;;;;;;3.53;1.60;;;;;;;21.50;21.89;92137.94;5070430;28;20037;-76
2022/11/24 08:07:24;;;;;;;3.42;1.30;;;;;;;21.71;21.40;92144.69;5052859;28;20036;-76
2022/11/24 08:09:51;;;;;;;1.85;1.05;;;;;;;21.69;20.77;92142.38;5070761;28;20032;-76
2022/11/24 08:12:20;;;;;;;1.70;1.02;;;;;;;22.23;19.99;92149.03;5069817;28;20047;-76
2022/11/24 08:14:49;;;;;;;1.65;0.90;;;;;;;23.01;19.78;92153.50;5069425;28;20040;-76
2022/11/24 08:17:16;;;;;;;1.17;1.00;;;;;;;22.83;19.13;92148.03;5071004;28;20485;-76
2022/11/24 08:19:42;;;;;;;1.88;0.95;;;;;;;23.90;19.17;92147.84;5069652;28;20044;-76
2022/11/24 08:22:08;;;;;;;1.10;0.90;;;;;;;24.13;19.80;92157.44;5070420;28;20317;-76
2022/11/24 08:24:33;;;;;;;1.58;1.00;;;;;;;24.13;19.29;92160.13;5071391;28;20052;-76
2022/11/24 08:26:59;;;;;;;2.15;1.05;;;;;;;24.55;18.98;92163.31;5071246;28;20524;-76
2022/11/24 08:29:29;;;;;;;2.25;1.20;;;;;;;24.75;19.83;92169.81;5071362;28;20056;-77
2022/11/24 08:31:58;;;;;;;2.33;1.27;;;;;;;24.68;19.59;92170.56;5053940;28;20047;-77
2022/11/24 08:34:24;;;;;;;1.92;1.20;;;;;;;23.04;19.71;92168.78;5069759;28;20618;-77
2022/11/24 08:36:51;;;;;;;1.17;0.90;;;;;;;22.30;21.51;92176.91;5070961;28;20043;-76
2022/11/24 08:39:17;;;;;;;1.63;1.00;;;;;;;21.48;20.78;92168.72;5069459;28;20118;-76
2022/11/24 08:41:43;;;;;;;3.45;1.50;;;;;;;21.21;21.46;92171.41;5070651;28;20044;-76
2022/11/24 08:44:09;;;;;;;1.90;1.15;;;;;;;20.36;21.50;92182.25;5070741;28;20032;-75
2022/11/24 08:46:36;;;;;;;1.63;0.90;;;;;;;22.07;19.99;92172.47;5073336;28;20052;-76
2022/11/24 08:49:02;;;;;;;1.80;0.80;;;;;;;21.17;21.03;92165.28;5073148;28;20032;-75
2022/11/24 08:51:28;;;;;;;2.38;0.68;;;;;;;19.17;22.43;92165.91;5074072;28;20555;-76
2022/11/24 08:53:59;;;;;;;2.17;1.10;;;;;;;18.81;23.59;92162.47;5058270;28;20147;-76
2022/11/24 08:56:30;;;;;;;1.65;0.90;;;;;;;18.00;24.61;92162.78;5073276;28;20036;-76
2022/11/24 08:58:56;;;;;;;1.05;0.70;;;;;;;17.37;23.15;92154.66;5072573;28;20032;-75
2022/11/24 09:01:23;;;;;;;3.00;1.10;;;;;;;17.80;23.38;92164.50;5074106;28;20029;-75
2022/11/24 09:03:49;;;;;;;2.67;1.20;;;;;;;18.08;24.78;92163.72;5074169;28;20028;-76
2022/11/24 09:06:23;;;;;;;1.92;0.90;;;;;;;19.17;23.04;92154.53;5073311;28;20405;-75
2022/11/24 09:08:53;;;;;;;1.42;0.93;;;;;;;19.61;21.35;92149.75;5072023;28;20044;-75
2022/11/24 09:11:19;;;;;;;1.55;0.75;;;;;;;19.50;21.38;92144.22;5072549;28;20068;-75
2022/11/24 09:13:44;;;;;;;1.45;0.68;;;;;;;20.27;22.55;92152.47;5072534;28;20056;-76
2022/11/24 09:16:21;;;;;;;1.42;0.88;;;;;;;20.61;20.79;92152.66;5073799;28;20032;-75
2022/11/24 09:19:00;;;;;;;2.90;1.05;;;;;;;20.03;21.74;92143.72;5073601;28;20494;-76
2022/11/24 09:21:26;;;;;;;1.75;0.77;;;;;;;17.84;23.92;92138.16;5073677;28;20454;-75
2022/11/24 09:23:53;;;;;;;1.45;0.60;;;;;;;17.47;26.64;92141.72;5073822;28;20390;-75
2022/11/24 09:26:27;;;;;;;4.10;1.40;;;;;;;16.90;28.73;92149.91;5105881;28;20059;-75
2022/11/24 09:28:54;;;;;;;2.15;1.20;;;;;;;17.17;28.84;92148.44;5106250;28;20066;-75
2022/11/24 09:31:25;;;;;;;1.08;0.70;;;;;;;17.34;26.48;92152.66;5073511;28;20108;-75
2022/11/24 09:33:51;;;;;;;1.27;0.80;;;;;;;16.84;27.23;92159.94;5073239;28;20057;-75
2022/11/24 09:36:18;;;;;;;2.67;1.10;;;;;;;16.08;27.95;92153.41;5072222;28;20111;-75
2022/11/24 09:38:44;;;;;;;3.80;1.50;;;;;;;15.55;28.68;92156.53;5072203;28;20036;-76
2022/11/24 09:41:30;;;;;;;5.68;1.50;;;;;;;14.89;28.69;92156.44;5055544;28;20036;-75
2022/11/24 09:44:18;;;;;;;2.38;1.10;;;;;;;14.62;30.16;92166.34;5072137;28;20072;-76
2022/11/24 09:47:25;;;;;;;7.50;1.30;;;;;;;14.55;29.22;92163.44;5073611;28;20379;-75
2022/11/24 09:50:02;;;;;;;1.75;1.00;;;;;;;14.95;29.60;92168.31;5071341;28;20032;-75
2022/11/24 09:52:40;;;;;;;3.40;1.10;;;;;;;14.90;29.08;92165.88;5072788;28;20040;-75
2022/11/24 09:55:34;;;;;;;2.45;0.88;;;;;;;14.49;30.98;92178.59;5073122;28;20043;-76
2022/11/24 09:58:37;;;;;;;1.30;0.90;;;;;;;14.19;31.50;92177.81;5087431;28;20086;-75
2022/11/24 10:01:17;;;;;;;0.73;0.63;;;;;;;14.14;30.39;92176.13;5072991;28;20429;-74
2022/11/24 10:03:50;;;;;;;1.58;1.00;;;;;;;13.62;31.31;92180.72;5073020;28;20044;-74
2022/11/24 10:06:39;;;;;;;1.98;0.90;;;;;;;14.07;32.46;92182.94;5071795;28;20086;-75
2022/11/24 10:09:14;;;;;;;1.70;1.15;;;;;;;14.15;32.64;92182.16;5072779;28;20059;-75
2022/11/24 10:11:42;;;;;;;2.17;1.25;;;;;;;14.11;32.50;92184.63;5072067;28;20493;-75
2022/11/24 10:14:40;;;;;;;2.08;1.17;;;;;;;14.03;32.67;92198.59;5071540;28;20017;-75
2022/11/24 10:17:39;;;;;;;1.75;1.13;;;;;;;13.97;32.92;92199.09;5072473;28;20036;-75
2022/11/24 10:20:17;;;;;;;3.38;1.50;;;;;;;14.02;33.57;92202.31;5072365;28;20059;-75
2022/11/24 10:23:01;;;;;;;3.30;1.20;;;;;;;13.92;31.91;92197.41;5088174;28;20075;-75
2022/11/24 10:25:42;;;;;;;1.80;1.10;;;;;;;14.34;31.10;92198.34;5071112;28;20040;-76
2022/11/24 10:28:13;;;;;;;1.00;0.90;;;;;;;14.14;30.79;92196.41;5070105;28;20040;-76
2022/11/24 10:30:39;;;;;;;3.13;1.40;;;;;;;14.35;30.13;92210.41;5071061;28;20410;-75
2022/11/24 10:33:23;;;;;;;2.15;1.10;;;;;;;14.65;28.66;92210.47;5071086;28;20040;-76
2022/11/24 10:35:55;;;;;;;2.75;1.02;;;;;;;14.77;28.69;92204.53;5072214;28;20037;-76
2022/11/24 10:38:39;;;;;;;1.23;0.73;;;;;;;14.85;30.36;92208.22;5070641;28;20109;-75
2022/11/24 10:41:18;;;;;;;1.27;0.90;;;;;;;15.13;29.14;92205.88;5072252;28;20037;-76
2022/11/24 10:43:43;;;;;;;2.38;1.00;;;;;;;15.10;29.77;92209.91;5072259;28;20103;-75
2022/11/24 10:46:21;;;;;;;2.90;1.00;;;;;;;14.67;30.01;92210.16;5071154;28;20043;-75
2022/11/24 10:48:52;;;;;;;2.83;1.20;;;;;;;15.05;30.74;92202.19;5072039;28;20433;-76
2022/11/24 10:51:33;;;;;;;1.45;1.00;;;;;;;15.48;28.75;92198.47;5070759;28;20379;-76
2022/11/24 10:54:15;;;;;;;4.20;1.40;;;;;;;15.76;29.34;92195.31;5072101;28;20032;-75
2022/11/24 10:56:42;;;;;;;3.33;1.35;;;;;;;15.68;30.73;92199.56;5070202;28;20025;-76
2022/11/24 10:59:23;;;;;;;2.05;1.20;;;;;;;15.49;29.78;92202.69;5054397;28;20024;-76
2022/11/24 11:01:49;;;;;;;2.28;1.30;;;;;;;15.52;30.84;92199.38;5070868;28;20059;-76
2022/11/24 11:04:26;;;;;;;2.97;1.40;;;;;;;15.82;31.36;92204.59;5070353;28;20456;-76
2022/11/24 11:07:06;;;;;;;4.55;1.65;;;;;;;15.51;31.51;92199.69;5070639;28;20036;-76
2022/11/24 11:09:32;;;;;;;2.92;1.33;;;;;;;15.34;33.27;92203.25;5071620;28;20028;-76
2022/11/24 11:12:09;;;;;;;6.07;1.30;;;;;;;15.55;31.03;92201.38;5070653;28;20165;-75
2022/11/24 11:14:35;;;;;;;1.85;1.10;;;;;;;15.78;29.70;92193.91;5069751;28;20040;-76
2022/11/24 11:17:01;;;;;;;2.40;1.20;;;;;;;15.30;28.80;92195.19;5070734;28;20085;-76
2022/11/24 11:19:33;;;;;;;1.88;0.90;;;;;;;15.28;29.94;92189.47;5071590;28;20024;-75
2022/11/24 11:22:31;;;;;;;1.77;1.10;;;;;;;14.93;30.82;92186.31;5069902;28;20371;-75
2022/11/24 11:25:28;;;;;;;2.55;1.20;;;;;;;14.68;32.54;92188.00;5100339;28;20442;-76
2022/11/24 11:28:20;;;;;;;2.10;1.13;;;;;;;14.63;32.96;92196.84;5069099;28;20044;-76
2022/11/24 11:31:01;;;;;;;2.10;1.10;;;;;;;14.79;29.31;92197.06;5070111;28;20036;-76
2022/11/24 11:33:29;;;;;;;2.30;1.23;;;;;;;14.43;29.60;92195.66;5069808;28;20036;-74
2022/11/24 11:35:56;;;;;;;1.98;1.05;;;;;;;14.62;30.31;92195.31;5071168;28;20025;-76
2022/11/24 11:38:25;;;;;;;2.58;1.20;;;;;;;14.92;30.40;92196.06;5070039;28;20078;-76
2022/11/24 11:40:51;;;;;;;2.17;1.20;;;;;;;15.16;29.28;92206.00;5070121;28;20036;-76
2022/11/24 11:43:28;;;;;;;4.28;1.30;;;;;;;15.22;32.17;92197.91;5071424;28;20313;-76
2022/11/24 11:46:16;;;;;;;2.88;1.45;;;;;;;15.60;31.30;92195.91;5070131;28;20257;-76
2022/11/24 11:48:46;;;;;;;4.05;1.30;;;;;;;15.43;29.61;92193.41;5053425;28;20041;-76